This is the latest recevied weather packets stored in our database for station/object Sauldorf. If no packets are shown the sender has not sent any weather packets the latest 1 day(s).
| Time | Temp. | Humidity | Pressure | Rain* | Wind** | Luminosity | Snow |
|---|---|---|---|---|---|---|---|
| 1777975332 | 13.33° C | 80% | 1007.2 hPa | 0 mm | 3.13 m/s, 306° | - | - |
| 1777973532 | 14.44° C | 76% | 1007.5 hPa | 0 mm | 3.58 m/s, 238° | - | - |
| 1777971732 | 14.44° C | 75% | 1007.6 hPa | 0 mm | 2.68 m/s, 259° | - | - |
| 1777969931 | 15° C | 72% | 1007.6 hPa | 0 mm | 3.13 m/s, 240° | - | - |
| 1777968131 | 14.44° C | 72% | 1007.6 hPa | 0 mm | 1.34 m/s, 245° | - | - |
| 1777966330 | 13.89° C | 75% | 1007.8 hPa | 0 mm | 1.34 m/s, 117° | - | - |
| 1777964532 | 12.78° C | 77% | 1008 hPa | 0 mm | 1.34 m/s, 76° | - | - |
| 1777962731 | 12.22° C | 81% | 1008.2 hPa | 0 mm | 0.45 m/s, 98° | - | - |
| 1777960932 | 11.11° C | 85% | 1008.2 hPa | 0 mm | 1.79 m/s, 56° | - | - |
| 1777959131 | 8.33° C | 90% | 1008.3 hPa | 0 mm | 0.89 m/s, 83° | - | - |
| 1777957331 | 7.78° C | 87% | 1008.3 hPa | 0 mm | 0.45 m/s, 355° | - | - |
| 1777955531 | 7.78° C | 86% | 1008.4 hPa | 0 mm | 1.34 m/s, 24° | - | - |
| 1777953731 | 8.33° C | 86% | 1008.6 hPa | 0 mm | 0.89 m/s, 23° | - | - |
| 1777951931 | 8.89° C | 85% | 1008.6 hPa | 0 mm | 1.79 m/s, 21° | - | - |
| 1777950133 | 8.89° C | 83% | 1008.7 hPa | 0 mm | 1.34 m/s, 21° | - | - |
| 1777948331 | 9.44° C | 83% | 1008.9 hPa | 0 mm | 0.89 m/s, 21° | - | - |
| 1777946531 | 10° C | 82% | 1009.1 hPa | 0 mm | 2.24 m/s, 24° | - | - |
| 1777944731 | 10° C | 81% | 1009.4 hPa | 0 mm | 3.13 m/s, 27° | - | - |
| 1777942931 | 10.56° C | 81% | 1009.7 hPa | 0 mm | 3.13 m/s, 14° | - | - |
| 1777941128 | 11.11° C | 80% | 1010.2 hPa | 0 mm | 3.58 m/s, 346° | - | - |
| 1777939330 | 11.67° C | 79% | 1010.4 hPa | 0 mm | 3.58 m/s, 325° | - | - |
| 1777937529 | 11.67° C | 77% | 1010.6 hPa | 0 mm | 3.58 m/s, 319° | - | - |
* Rain since midnight (hover to see other rain measurements)
** Current wind speed in m/s (hover to see current wind gust speed)